Time;durP1;ratioP1;P1;durP2;ratioP2;P2;SDS_P1;SDS_P2;PMS_P1;PMS_P2;Temp;Humidity;BMP_temperature;BMP_pressure;BME280_temperature;BME280_humidity;BME280_pressure;Samples;Min_cycle;Max_cycle;Signal;HPM_P1;HPM_P2
2024/04/12 00:01:43;;;;;;;1.00;0.90;;;23.20;76.30;;;;;;5456811;26;21050;-47
2024/04/12 00:04:15;;;;;;;1.67;1.57;;;23.20;76.40;;;;;;5457008;26;20898;-48
2024/04/12 00:06:44;;;;;;;1.10;0.90;;;23.20;76.40;;;;;;5441516;26;20467;-49
2024/04/12 00:09:20;;;;;;;1.70;0.90;;;23.20;76.50;;;;;;5441605;26;20455;-46
2024/04/12 00:11:46;;;;;;;1.00;0.73;;;23.10;76.50;;;;;;5452326;26;20579;-45
2024/04/12 00:14:15;;;;;;;1.63;0.90;;;23.10;76.60;;;;;;5454180;26;20535;-50
2024/04/12 00:16:43;;;;;;;1.23;0.90;;;23.10;76.70;;;;;;5450893;26;20475;-43
2024/04/12 00:19:18;;;;;;;1.60;0.97;;;23.00;76.70;;;;;;5452019;26;21406;-50
2024/04/12 00:21:46;;;;;;;1.50;1.10;;;23.00;76.80;;;;;;5457201;26;20538;-44
2024/04/12 00:24:24;;;;;;;1.20;0.80;;;23.00;76.90;;;;;;5455807;26;20463;-49
2024/04/12 00:26:55;;;;;;;1.30;0.80;;;22.90;76.90;;;;;;5439759;26;20455;-52
2024/04/12 00:29:39;;;;;;;1.97;0.80;;;23.00;77.10;;;;;;5452946;26;25163;-44
2024/04/12 00:32:13;;;;;;;1.67;0.90;;;22.90;77.10;;;;;;5450627;26;20554;-50
2024/04/12 00:34:47;;;;;;;1.10;0.90;;;22.90;77.30;;;;;;5454365;26;20474;-44
2024/04/12 00:37:16;;;;;;;1.30;0.90;;;22.90;77.40;;;;;;5446258;26;20693;-49
2024/04/12 00:39:54;;;;;;;2.13;1.00;;;22.90;77.50;;;;;;5455505;26;20463;-45
2024/04/12 00:42:26;;;;;;;1.73;1.00;;;22.80;77.40;;;;;;5452033;26;20920;-46
2024/04/12 00:44:57;;;;;;;1.47;0.83;;;22.80;77.60;;;;;;5455428;26;20476;-50
2024/04/12 00:47:27;;;;;;;1.43;1.13;;;22.80;77.70;;;;;;5433747;26;20479;-46
2024/04/12 00:50:00;;;;;;;1.87;0.83;;;22.70;77.60;;;;;;5453993;26;20512;-46
2024/04/12 00:52:33;;;;;;;2.03;0.87;;;22.70;77.80;;;;;;5453447;26;20606;-50
2024/04/12 00:55:07;;;;;;;1.30;0.80;;;22.70;77.80;;;;;;5449335;26;20983;-49
2024/04/12 00:57:40;;;;;;;1.20;0.80;;;22.70;78.00;;;;;;5457624;26;20581;-47
2024/04/12 01:00:13;;;;;;;1.27;1.00;;;22.70;78.10;;;;;;5452449;26;20456;-49
2024/04/12 01:02:44;;;;;;;1.20;1.07;;;22.60;78.10;;;;;;5451072;26;20560;-44
2024/04/12 01:05:28;;;;;;;1.40;0.90;;;22.60;78.30;;;;;;5433936;26;20463;-49
2024/04/12 01:07:55;;;;;;;1.23;0.83;;;22.50;78.30;;;;;;5452310;26;20607;-46
2024/04/12 01:10:31;;;;;;;1.87;0.80;;;22.50;78.40;;;;;;5444311;26;20531;-45
2024/04/12 01:13:02;;;;;;;1.30;0.90;;;22.50;78.50;;;;;;5455378;26;20530;-50
2024/04/12 01:15:43;;;;;;;1.17;0.73;;;22.50;78.70;;;;;;5447918;26;20468;-49
2024/04/12 01:18:14;;;;;;;1.30;0.90;;;22.50;78.80;;;;;;5457591;26;20550;-50
2024/04/12 01:20:51;;;;;;;1.20;0.80;;;22.40;78.80;;;;;;5452010;26;20467;-49
2024/04/12 01:23:19;;;;;;;1.30;1.10;;;22.40;79.00;;;;;;5456998;26;20471;-46
2024/04/12 01:25:59;;;;;;;1.77;0.70;;;22.40;79.10;;;;;;5449445;26;20479;-48
2024/04/12 01:28:27;;;;;;;1.40;0.90;;;22.40;79.20;;;;;;5454326;26;20487;-43
2024/04/12 01:30:59;;;;;;;1.60;0.87;;;22.30;79.20;;;;;;5448140;26;20456;-48
2024/04/12 01:33:32;;;;;;;1.00;0.73;;;22.30;79.30;;;;;;5447237;26;21081;-50
2024/04/12 01:36:05;;;;;;;1.47;0.80;;;22.30;79.50;;;;;;5454533;26;20614;-49
2024/04/12 01:38:36;;;;;;;2.30;0.97;;;22.20;79.60;;;;;;5452756;26;20468;-49
2024/04/12 01:41:11;;;;;;;2.40;0.90;;;22.20;79.70;;;;;;5456357;26;20526;-48
2024/04/12 01:43:39;;;;;;;1.10;0.80;;;22.20;79.90;;;;;;5450949;26;20589;-46
2024/04/12 01:46:09;;;;;;;2.50;1.33;;;22.20;80.10;;;;;;5451532;26;20463;-48
2024/04/12 01:48:35;;;;;;;1.20;0.93;;;22.20;80.10;;;;;;5447655;26;20545;-44
2024/04/12 01:51:05;;;;;;;2.10;0.90;;;22.10;80.20;;;;;;5450728;26;21169;-48
2024/04/12 01:53:38;;;;;;;1.43;0.83;;;22.10;80.30;;;;;;5455413;26;21023;-45
2024/04/12 01:56:16;;;;;;;1.50;0.90;;;22.10;80.40;;;;;;5447665;26;21150;-45
2024/04/12 01:58:43;;;;;;;1.20;0.80;;;22.10;80.60;;;;;;5452144;26;20511;-45
2024/04/12 02:01:16;;;;;;;1.20;0.90;;;22.00;80.60;;;;;;5452764;26;21033;-49
2024/04/12 02:03:44;;;;;;;1.37;0.90;;;22.00;80.80;;;;;;5452307;26;20574;-48
2024/04/12 02:06:16;;;;;;;2.13;1.13;;;22.00;81.00;;;;;;5448705;26;20460;-45
2024/04/12 02:08:44;;;;;;;2.03;0.80;;;22.00;81.20;;;;;;5448383;26;20463;-48
2024/04/12 02:11:27;;;;;;;1.20;0.80;;;21.90;81.20;;;;;;5445066;26;20514;-44
2024/04/12 02:13:57;;;;;;;1.37;0.90;;;21.90;81.40;;;;;;5450250;26;20562;-48
2024/04/12 02:16:27;;;;;;;2.90;1.27;;;21.80;81.50;;;;;;5452393;26;20520;-43
2024/04/12 02:18:56;;;;;;;1.20;1.00;;;21.80;81.60;;;;;;5450530;26;20471;-49
2024/04/12 02:21:31;;;;;;;0.90;0.70;;;21.80;81.70;;;;;;5449337;26;20827;-45
2024/04/12 02:24:01;;;;;;;1.73;1.20;;;21.70;81.80;;;;;;5452746;26;21018;-45
2024/04/12 02:26:37;;;;;;;1.30;0.80;;;21.70;81.90;;;;;;5442620;26;20455;-47
2024/04/12 02:29:12;;;;;;;1.40;0.90;;;21.70;82.10;;;;;;5447877;26;21086;-45
2024/04/12 02:31:46;;;;;;;1.20;0.80;;;21.60;82.10;;;;;;5448644;26;20494;-50
2024/04/12 02:34:13;;;;;;;1.80;1.00;;;21.70;82.30;;;;;;5441141;26;20869;-45
2024/04/12 02:36:42;;;;;;;2.20;1.00;;;21.70;82.50;;;;;;5438680;26;20471;-49
2024/04/12 02:39:09;;;;;;;1.50;1.00;;;21.60;82.50;;;;;;5398382;26;21470;-49
2024/04/12 02:41:51;;;;;;;1.60;0.83;;;21.60;82.70;;;;;;5393953;26;21481;-46
2024/04/12 02:44:26;;;;;;;2.10;1.00;;;21.60;82.80;;;;;;5413436;26;20813;-52
2024/04/12 02:46:58;;;;;;;1.53;1.10;;;21.60;83.00;;;;;;5418490;26;20508;-49
2024/04/12 02:49:28;;;;;;;1.07;0.80;;;21.50;83.10;;;;;;5428903;26;21079;-47
2024/04/12 02:52:01;;;;;;;1.60;1.00;;;21.50;83.10;;;;;;5428932;26;20454;-52
2024/04/12 02:54:29;;;;;;;1.10;0.80;;;21.50;83.40;;;;;;5420979;26;20467;-50
2024/04/12 02:57:00;;;;;;;1.77;0.80;;;21.40;83.30;;;;;;5434598;26;20448;-47
2024/04/12 02:59:38;;;;;;;1.27;0.80;;;21.40;83.50;;;;;;5435234;26;20475;-48
2024/04/12 03:02:07;;;;;;;1.07;0.90;;;21.40;83.60;;;;;;5427892;26;20451;-47
2024/04/12 03:04:36;;;;;;;1.10;0.80;;;21.40;83.70;;;;;;5422020;26;20473;-50
2024/04/12 03:07:09;;;;;;;1.13;0.80;;;21.40;84.00;;;;;;5426423;26;21283;-47
2024/04/12 03:09:40;;;;;;;1.20;0.90;;;21.30;83.90;;;;;;5417783;26;20471;-42
2024/04/12 03:12:14;;;;;;;1.10;0.80;;;21.30;84.00;;;;;;5426235;26;20552;-47
2024/04/12 03:14:54;;;;;;;1.23;0.80;;;21.30;84.20;;;;;;5429481;26;20651;-36
2024/04/12 03:17:22;;;;;;;1.33;1.00;;;21.30;84.30;;;;;;5436652;26;21125;-43
2024/04/12 03:19:50;;;;;;;0.93;0.70;;;21.30;84.30;;;;;;5417192;26;20688;-46
2024/04/12 03:22:20;;;;;;;1.30;0.75;;;21.30;84.50;;;;;;5422745;26;20464;-40
2024/04/12 03:24:50;;;;;;;1.03;0.80;;;21.20;84.50;;;;;;5439048;26;20261;-47
2024/04/12 03:27:21;;;;;;;1.17;0.82;;;21.40;85.30;;;;;;5419501;26;20456;-44
2024/04/12 03:29:51;;;;;;;2.35;0.90;;;21.20;85.30;;;;;;5424116;26;20369;-43
2024/04/12 03:32:25;;;;;;;1.37;1.10;;;21.20;86.40;;;;;;5434591;26;20342;-44
2024/04/12 03:34:51;;;;;;;0.90;0.70;;;21.30;86.80;;;;;;5420818;26;20463;-51
2024/04/12 03:37:36;;;;;;;1.27;1.00;;;21.20;86.80;;;;;;5420819;26;21633;-44
2024/04/12 03:40:15;;;;;;;2.40;1.00;;;21.40;87.50;;;;;;5430628;26;22458;-38
2024/04/12 03:42:46;;;;;;;4.38;1.17;;;21.30;87.80;;;;;;5421236;26;21244;-43
2024/04/12 03:45:12;;;;;;;1.63;0.97;;;21.20;88.50;;;;;;5424801;26;20243;-45
2024/04/12 03:47:50;;;;;;;2.58;0.80;;;21.30;90.00;;;;;;5418415;26;20463;-37
2024/04/12 03:50:17;;;;;;;3.47;1.10;;;21.30;90.00;;;;;;5418504;26;20923;-42
2024/04/12 03:52:48;;;;;;;2.70;1.10;;;21.20;90.10;;;;;;5413243;26;20264;-46
2024/04/12 03:55:14;;;;;;;1.30;1.00;;;21.10;90.50;;;;;;5414505;26;20236;-46
2024/04/12 03:57:46;;;;;;;2.33;1.10;;;21.20;90.70;;;;;;5420712;26;20338;-48
2024/04/12 04:00:24;;;;;;;1.55;0.93;;;21.10;90.70;;;;;;5420000;26;21559;-45
2024/04/12 04:02:52;;;;;;;6.07;1.35;;;21.10;90.70;;;;;;5408294;26;20222;-45
2024/04/12 04:05:25;;;;;;;2.03;1.00;;;21.10;90.70;;;;;;5419938;26;20238;-40
2024/04/12 04:07:56;;;;;;;1.50;1.20;;;21.00;90.60;;;;;;5424334;26;20851;-47
2024/04/12 04:10:25;;;;;;;1.63;1.00;;;21.10;90.70;;;;;;5429146;26;20250;-48
2024/04/12 04:13:01;;;;;;;2.70;1.00;;;21.00;90.70;;;;;;5433259;26;20293;-41
2024/04/12 04:15:33;;;;;;;1.20;0.85;;;21.00;90.80;;;;;;5423463;26;20584;-43
2024/04/12 04:18:10;;;;;;;2.65;1.35;;;21.00;90.90;;;;;;5419675;26;20247;-44
2024/04/12 04:20:39;;;;;;;5.22;1.05;;;20.90;90.90;;;;;;5445909;26;21013;-50
2024/04/12 04:23:08;;;;;;;2.20;1.00;;;20.90;90.90;;;;;;5455704;26;20230;-39
2024/04/12 04:25:33;;;;;;;1.85;1.45;;;21.00;91.00;;;;;;5426655;26;20234;-46
2024/04/12 04:28:15;;;;;;;1.30;0.93;;;20.90;91.00;;;;;;5434538;26;20351;-40
2024/04/12 04:30:46;;;;;;;2.90;1.53;;;20.90;91.10;;;;;;5432560;26;20238;-40
2024/04/12 04:33:30;;;;;;;3.47;1.52;;;20.90;91.10;;;;;;5435757;26;20791;-40
2024/04/12 04:35:56;;;;;;;1.60;0.90;;;20.90;91.10;;;;;;5436840;26;20240;-41
2024/04/12 04:38:25;;;;;;;2.23;1.20;;;20.90;91.20;;;;;;5429132;26;20871;-41
2024/04/12 04:40:57;;;;;;;2.88;1.23;;;20.90;91.20;;;;;;5417406;26;21286;-46
2024/04/12 04:43:30;;;;;;;1.40;0.98;;;20.90;91.30;;;;;;5421930;26;20231;-39
2024/04/12 04:46:02;;;;;;;2.75;1.48;;;20.80;91.30;;;;;;5432120;26;20296;-46
2024/04/12 04:48:35;;;;;;;1.65;1.30;;;20.80;91.30;;;;;;5418847;26;20235;-45
2024/04/12 04:51:03;;;;;;;1.30;0.80;;;20.80;91.30;;;;;;5423366;26;22453;-42
2024/04/12 04:53:33;;;;;;;2.10;1.42;;;20.80;91.40;;;;;;5430409;26;20334;-45
2024/04/12 04:56:12;;;;;;;1.73;1.02;;;20.80;91.40;;;;;;5425955;26;20932;-47
2024/04/12 04:58:54;;;;;;;2.15;1.33;;;20.80;91.40;;;;;;5436657;26;20335;-49
2024/04/12 05:01:20;;;;;;;2.55;1.00;;;20.70;91.40;;;;;;5437770;26;20268;-41
2024/04/12 05:03:54;;;;;;;2.20;1.13;;;20.70;91.50;;;;;;5430362;26;20251;-44
2024/04/12 05:06:25;;;;;;;2.10;0.98;;;20.70;91.50;;;;;;5424524;26;20230;-46
2024/04/12 05:09:00;;;;;;;1.20;0.90;;;20.70;91.60;;;;;;5420102;26;20274;-48
2024/04/12 05:11:31;;;;;;;1.20;0.90;;;20.70;91.60;;;;;;5422314;26;20936;-46
2024/04/12 05:14:46;;;;;;;1.40;1.20;;;20.60;91.60;;;;;;5424036;26;20893;-45
2024/04/12 05:17:03;;;;;;;2.08;0.93;;;20.60;91.60;;;;;;5419187;26;20288;-43
2024/04/12 05:19:40;;;;;;;1.33;1.23;;;20.60;91.70;;;;;;5426794;26;20247;-37
2024/04/12 05:22:20;;;;;;;1.40;0.95;;;20.60;91.70;;;;;;5412370;26;20273;-43
2024/04/12 05:24:52;;;;;;;1.52;1.13;;;20.60;91.80;;;;;;5420971;26;20285;-47
2024/04/12 05:27:20;;;;;;;1.20;1.00;;;20.60;91.90;;;;;;5428081;26;21028;-38
2024/04/12 05:29:51;;;;;;;1.40;1.00;;;20.60;92.10;;;;;;5436052;26;20230;-41
2024/04/12 05:32:23;;;;;;;2.85;1.20;;;20.50;92.20;;;;;;5412713;26;20243;-47
2024/04/12 05:34:54;;;;;;;1.75;0.95;;;20.60;92.40;;;;;;5425983;26;21528;-43
2024/04/12 05:37:20;;;;;;;2.25;1.40;;;20.60;92.40;;;;;;5420710;26;20809;-40
2024/04/12 05:39:50;;;;;;;2.15;1.50;;;20.50;92.20;;;;;;5445659;26;20239;-45
2024/04/12 05:42:16;;;;;;;2.33;1.50;;;20.40;91.90;;;;;;5423710;26;20269;-45
2024/04/12 05:44:52;;;;;;;3.07;1.40;;;20.50;91.80;;;;;;5434315;26;20234;-43
2024/04/12 05:47:21;;;;;;;2.58;1.50;;;20.50;91.80;;;;;;5421075;26;20738;-40
2024/04/12 05:49:54;;;;;;;1.77;1.60;;;20.50;91.80;;;;;;5423701;26;20883;-46
2024/04/12 05:52:22;;;;;;;2.05;1.33;;;20.50;91.80;;;;;;5419929;26;20732;-45
2024/04/12 05:54:50;;;;;;;1.27;1.15;;;20.40;91.80;;;;;;5437847;26;20638;-47
2024/04/12 05:57:22;;;;;;;2.95;1.30;;;20.50;92.00;;;;;;5432446;26;20222;-38
2024/04/12 05:59:54;;;;;;;5.57;1.50;;;20.40;91.90;;;;;;5414470;26;20252;-38
2024/04/12 06:02:20;;;;;;;1.90;1.40;;;20.40;91.90;;;;;;5426703;26;20230;-38
2024/04/12 06:04:50;;;;;;;2.43;1.13;;;20.30;92.00;;;;;;5431577;26;20356;-45
2024/04/12 06:07:16;;;;;;;1.38;1.10;;;20.40;91.90;;;;;;5420117;26;20511;-42
2024/04/12 06:09:47;;;;;;;5.88;1.33;;;20.40;92.10;;;;;;5424100;26;20250;-43
2024/04/12 06:12:16;;;;;;;1.90;1.42;;;20.40;92.10;;;;;;5408468;26;20333;-41
2024/04/12 06:14:51;;;;;;;2.03;1.27;;;20.40;92.20;;;;;;5427659;26;20234;-39
2024/04/12 06:17:23;;;;;;;2.08;1.20;;;20.40;92.20;;;;;;5432254;26;20617;-46
2024/04/12 06:20:03;;;;;;;1.70;1.20;;;20.40;92.20;;;;;;5427820;26;20293;-45
2024/04/12 06:22:31;;;;;;;1.67;1.30;;;20.40;92.20;;;;;;5420634;26;20229;-44
2024/04/12 06:25:03;;;;;;;1.50;1.15;;;20.30;92.20;;;;;;5427258;26;20674;-44
2024/04/12 06:27:33;;;;;;;2.88;2.13;;;20.40;92.30;;;;;;5443643;26;21022;-43
2024/04/12 06:30:06;;;;;;;3.13;1.05;;;20.40;92.40;;;;;;5434111;26;20664;-42
2024/04/12 06:32:37;;;;;;;1.90;1.15;;;20.40;92.10;;;;;;5414258;26;20243;-39
2024/04/12 06:35:20;;;;;;;1.35;0.93;;;20.60;92.00;;;;;;5445042;26;20726;-42
2024/04/12 06:37:47;;;;;;;2.47;1.10;;;20.60;91.80;;;;;;5416818;26;20490;-38
2024/04/12 06:40:18;;;;;;;1.73;1.13;;;20.60;91.70;;;;;;5441551;26;20265;-42
2024/04/12 06:42:43;;;;;;;2.10;1.25;;;20.70;91.80;;;;;;5427888;26;20815;-41
2024/04/12 06:45:15;;;;;;;1.73;1.33;;;20.80;91.70;;;;;;5428168;26;20234;-45
2024/04/12 06:47:56;;;;;;;3.57;1.77;;;20.70;91.50;;;;;;5431556;26;20629;-44
2024/04/12 06:50:27;;;;;;;2.43;1.17;;;20.80;90.00;;;;;;5441285;26;20561;-39
2024/04/12 06:52:54;;;;;;;2.40;1.10;;;20.90;90.30;;;;;;5411330;26;20460;-37
2024/04/12 06:55:30;;;;;;;1.27;0.97;;;21.00;90.70;;;;;;5445951;26;20235;-41
2024/04/12 06:58:04;;;;;;;1.73;1.43;;;21.00;90.60;;;;;;5440975;26;21397;-40
2024/04/12 07:00:37;;;;;;;1.27;1.10;;;21.00;90.60;;;;;;5441414;26;20526;-48
2024/04/12 07:03:08;;;;;;;2.37;1.40;;;21.00;90.50;;;;;;5431567;26;20593;-42
2024/04/12 07:05:40;;;;;;;2.83;1.00;;;21.10;90.50;;;;;;5444176;26;20531;-42
2024/04/12 07:08:06;;;;;;;3.10;1.10;;;21.10;90.40;;;;;;5431759;26;20459;-46
2024/04/12 07:10:37;;;;;;;3.30;1.20;;;21.20;90.30;;;;;;5439830;26;20510;-44
2024/04/12 07:13:03;;;;;;;3.70;0.93;;;21.20;90.20;;;;;;5426819;26;20551;-36
2024/04/12 07:15:33;;;;;;;2.53;1.00;;;21.20;90.40;;;;;;5439986;26;20476;-45
2024/04/12 07:18:04;;;;;;;2.90;1.27;;;21.20;90.50;;;;;;5435770;26;21339;-44
2024/04/12 07:20:38;;;;;;;1.90;1.20;;;21.20;90.50;;;;;;5437790;26;20467;-42
2024/04/12 07:23:10;;;;;;;2.73;1.20;;;21.30;90.60;;;;;;5434999;26;20605;-43
2024/04/12 07:25:39;;;;;;;4.70;2.17;;;21.30;90.60;;;;;;5438325;26;21344;-40
2024/04/12 07:28:18;;;;;;;2.73;1.03;;;21.30;90.60;;;;;;5433195;26;20459;-40
2024/04/12 07:30:47;;;;;;;2.13;1.30;;;21.30;90.70;;;;;;5428747;26;20673;-47
2024/04/12 07:33:24;;;;;;;1.60;1.10;;;21.30;90.60;;;;;;5437044;26;20594;-50
2024/04/12 07:36:07;;;;;;;1.40;1.00;;;21.30;90.40;;;;;;5437314;26;20564;-53
2024/04/12 07:38:38;;;;;;;2.27;0.93;;;21.40;90.40;;;;;;5427061;26;20515;-46
2024/04/12 07:41:10;;;;;;;2.37;1.00;;;21.50;90.30;;;;;;5421219;26;20455;-47
2024/04/12 07:43:42;;;;;;;2.17;1.13;;;21.60;90.10;;;;;;5437935;26;20568;-41
2024/04/12 07:46:14;;;;;;;1.43;1.33;;;21.60;89.90;;;;;;5426230;26;20947;-45
2024/04/12 07:48:42;;;;;;;3.50;1.30;;;21.70;89.70;;;;;;5441006;26;20888;-41
2024/04/12 07:51:20;;;;;;;4.80;1.00;;;21.80;89.40;;;;;;5433870;26;20527;-45
2024/04/12 07:54:03;;;;;;;6.70;1.20;;;21.80;89.30;;;;;;5442307;26;20471;-40
2024/04/12 07:56:37;;;;;;;3.37;1.30;;;21.90;89.10;;;;;;5420257;26;21003;-46
2024/04/12 07:59:13;;;;;;;1.50;1.20;;;21.90;88.90;;;;;;5437956;26;20458;-46
2024/04/12 08:01:45;;;;;;;2.80;1.70;;;22.00;88.90;;;;;;5437938;26;20508;-50
2024/04/12 08:04:22;;;;;;;1.00;0.83;;;22.00;88.60;;;;;;5442060;26;21050;-43
2024/04/12 08:06:58;;;;;;;1.83;1.10;;;22.00;88.40;;;;;;5426902;26;20452;-43
2024/04/12 08:09:42;;;;;;;6.40;2.03;;;22.00;88.10;;;;;;5447951;26;20466;-47
2024/04/12 08:12:17;;;;;;;1.60;1.10;;;22.00;88.00;;;;;;5422824;26;20515;-43
2024/04/12 08:14:55;;;;;;;1.70;0.93;;;22.00;87.90;;;;;;5426552;26;20517;-46
2024/04/12 08:17:24;;;;;;;2.23;1.10;;;22.00;87.70;;;;;;5430633;26;20544;-43
2024/04/12 08:20:13;;;;;;;2.37;1.30;;;22.00;87.80;;;;;;5438601;26;21133;-41
2024/04/12 08:22:44;;;;;;;2.00;1.20;;;22.10;87.60;;;;;;5434846;26;20492;-45
2024/04/12 08:25:10;;;;;;;3.73;2.33;;;22.10;87.40;;;;;;5428726;26;20467;-46
2024/04/12 08:27:41;;;;;;;1.60;1.13;;;22.20;87.30;;;;;;5454763;26;20516;-37
2024/04/12 08:30:13;;;;;;;3.63;1.43;;;22.20;86.70;;;;;;5446176;26;20238;-45
2024/04/12 08:32:48;;;;;;;3.33;1.90;;;22.30;86.40;;;;;;5441925;26;21081;-41
2024/04/12 08:35:19;;;;;;;1.83;1.33;;;22.30;86.20;;;;;;5438505;26;20515;-52
2024/04/12 08:37:51;;;;;;;2.50;1.07;;;22.40;86.10;;;;;;5431562;26;22478;-44
2024/04/12 08:40:19;;;;;;;1.47;1.03;;;22.40;85.90;;;;;;5422103;26;21036;-47
2024/04/12 08:42:50;;;;;;;3.60;1.13;;;22.40;85.70;;;;;;5430669;26;20978;-48
2024/04/12 08:45:37;;;;;;;2.27;1.23;;;22.50;85.70;;;;;;5438818;26;20463;-41
2024/04/12 08:48:09;;;;;;;1.80;1.07;;;22.50;85.40;;;;;;5426414;26;20523;-43
2024/04/12 08:50:39;;;;;;;4.80;1.00;;;22.60;85.30;;;;;;5437184;26;20459;-44
2024/04/12 08:53:15;;;;;;;4.00;1.33;;;22.60;85.10;;;;;;5435453;26;20562;-45
2024/04/12 08:55:45;;;;;;;1.50;0.90;;;22.60;85.00;;;;;;5419117;26;20474;-45
2024/04/12 08:58:23;;;;;;;3.20;1.07;;;22.60;84.90;;;;;;5440085;26;20829;-41
2024/04/12 09:00:51;;;;;;;1.57;0.90;;;22.70;84.60;;;;;;5428142;26;20468;-44
2024/04/12 09:03:32;;;;;;;2.80;1.10;;;22.70;84.50;;;;;;5435937;26;20467;-45
2024/04/12 09:06:04;;;;;;;3.47;1.10;;;22.70;84.30;;;;;;5417881;26;20473;-40
2024/04/12 09:08:40;;;;;;;6.60;1.50;;;22.80;84.20;;;;;;5439860;26;20581;-41
2024/04/12 09:11:11;;;;;;;3.10;1.43;;;22.80;84.10;;;;;;5443792;26;20467;-42
2024/04/12 09:13:41;;;;;;;1.97;1.10;;;22.90;84.00;;;;;;5428209;26;20460;-45
2024/04/12 09:16:19;;;;;;;2.17;1.00;;;22.90;83.70;;;;;;5425981;26;20474;-45
2024/04/12 09:18:51;;;;;;;2.60;1.27;;;23.00;83.60;;;;;;5439813;26;20459;-46
2024/04/12 09:21:36;;;;;;;2.17;1.00;;;23.00;83.20;;;;;;5431166;26;20463;-50
2024/04/12 09:24:15;;;;;;;1.60;1.20;;;23.10;83.00;;;;;;5448264;26;20573;-44
2024/04/12 09:26:55;;;;;;;2.10;1.20;;;23.20;82.90;;;;;;5421690;26;20920;-43
2024/04/12 09:29:27;;;;;;;1.83;1.10;;;23.20;82.50;;;;;;5440501;26;20997;-48
2024/04/12 09:34:55;;;;;;;3.73;1.10;;;23.30;82.00;;;;;;5445487;26;20603;-47
2024/04/12 09:37:38;;;;;;;5.03;1.23;;;23.30;81.70;;;;;;5428670;26;20505;-43
2024/04/12 09:40:26;;;;;;;2.60;1.37;;;23.40;81.50;;;;;;5435716;26;22746;-46
2024/04/12 09:45:52;;;;;;;1.50;1.20;;;23.40;81.10;;;;;;5332180;26;20548;-48
2024/04/12 10:39:11;;;;;;;3.73;3.43;;;23.90;78.60;;;;;;5427216;26;21073;-41
2024/04/12 10:41:41;;;;;;;4.40;4.00;;;23.80;78.40;;;;;;5420829;26;21302;-51
2024/04/12 10:44:18;;;;;;;6.60;3.00;;;23.80;79.00;;;;;;5439241;26;21167;-40
2024/04/12 10:46:50;;;;;;;3.27;2.67;;;23.90;78.10;;;;;;5414618;26;20473;-46
2024/04/12 10:49:21;;;;;;;3.70;3.40;;;23.90;78.00;;;;;;5440964;26;21026;-47
2024/04/12 10:52:03;;;;;;;3.57;3.27;;;24.00;78.00;;;;;;5413140;26;20596;-45
2024/04/12 10:54:32;;;;;;;4.63;3.90;;;24.00;77.60;;;;;;5438473;26;20556;-42
2024/04/12 10:57:03;;;;;;;4.13;3.73;;;24.00;77.50;;;;;;5430110;26;20513;-45
2024/04/12 10:59:34;;;;;;;3.30;3.10;;;24.00;77.30;;;;;;5441300;26;20884;-47
2024/04/12 11:02:04;;;;;;;4.40;2.97;;;24.10;77.20;;;;;;5431535;26;21295;-42
2024/04/12 11:05:05;;;;;;;3.50;3.00;;;24.10;77.00;;;;;;5446862;26;20532;-49
2024/04/12 11:07:21;;;;;;;5.47;4.07;;;24.10;76.80;;;;;;5434898;26;20847;-46
2024/04/12 11:09:57;;;;;;;3.40;3.10;;;24.20;76.70;;;;;;5423499;26;20885;-42
2024/04/12 11:12:40;;;;;;;3.20;2.57;;;24.20;76.50;;;;;;5419592;26;20486;-52
2024/04/12 11:31:06;;;;;;;1.97;1.77;;;24.20;76.30;;;;;;5423121;26;20515;-43
2024/04/12 11:32:14;;;;;;;2.70;2.03;;;24.30;75.70;;;;;;5430688;26;20515;-44
2024/04/12 11:34:45;;;;;;;2.83;2.40;;;24.30;75.70;;;;;;5434974;26;21659;-44
2024/04/12 11:37:13;;;;;;;5.67;2.70;;;24.30;75.60;;;;;;5423556;26;20895;-45
2024/04/12 11:39:52;;;;;;;2.90;2.50;;;24.30;75.70;;;;;;5429143;26;21080;-43
2024/04/12 11:42:23;;;;;;;7.77;2.63;;;24.40;75.80;;;;;;5425033;26;20748;-50
2024/04/12 11:44:53;;;;;;;3.70;2.20;;;24.40;75.70;;;;;;5441042;26;20589;-39
2024/04/12 11:47:23;;;;;;;4.13;2.20;;;24.40;75.60;;;;;;5431496;26;20953;-41
2024/04/12 11:49:57;;;;;;;26.43;3.00;;;24.50;75.70;;;;;;5447482;26;20534;-43
2024/04/12 11:52:25;;;;;;;3.53;2.73;;;24.50;76.40;;;;;;5435593;26;23196;-46
2024/04/12 11:54:59;;;;;;;5.43;2.43;;;24.50;75.50;;;;;;5436571;26;20471;-49
2024/04/12 11:57:32;;;;;;;5.70;2.50;;;24.50;75.30;;;;;;5440965;26;20466;-48
2024/04/12 12:00:09;;;;;;;4.43;2.00;;;24.60;75.30;;;;;;5418818;26;20467;-41
2024/04/12 12:02:42;;;;;;;5.07;2.53;;;24.60;75.30;;;;;;5434006;26;20512;-48
2024/04/12 12:05:16;;;;;;;2.47;2.10;;;24.60;75.20;;;;;;5428309;26;21102;-39
2024/04/12 12:07:44;;;;;;;8.43;2.40;;;24.60;75.00;;;;;;5436128;26;20494;-39
2024/04/12 12:10:15;;;;;;;3.50;2.80;;;24.70;75.00;;;;;;5429696;26;20473;-44
2024/04/12 12:12:43;;;;;;;2.40;1.90;;;24.70;74.80;;;;;;5425905;26;21014;-43
2024/04/12 12:15:19;;;;;;;5.70;2.60;;;24.70;74.70;;;;;;5422526;26;20548;-49
2024/04/12 12:17:49;;;;;;;4.40;1.97;;;24.70;74.50;;;;;;5437231;26;21168;-42
2024/04/12 12:20:22;;;;;;;4.00;2.40;;;24.80;74.50;;;;;;5426065;26;20478;-43
2024/04/12 12:22:50;;;;;;;3.77;2.17;;;24.80;74.30;;;;;;5426318;26;20464;-41
2024/04/12 12:25:18;;;;;;;2.80;2.03;;;24.80;74.20;;;;;;5432283;26;20891;-43
2024/04/12 12:27:49;;;;;;;4.63;2.00;;;24.80;74.10;;;;;;5423732;26;20982;-46
2024/04/12 12:30:18;;;;;;;4.23;2.23;;;24.80;74.00;;;;;;5434847;26;20587;-40
2024/04/12 12:32:49;;;;;;;4.00;2.40;;;24.80;73.90;;;;;;5427707;26;21762;-45
2024/04/12 12:35:22;;;;;;;10.67;2.87;;;24.80;73.70;;;;;;5434449;26;20467;-50
2024/04/12 12:37:55;;;;;;;3.97;2.10;;;24.80;73.60;;;;;;5423938;26;20956;-47
2024/04/12 12:40:30;;;;;;;3.00;2.33;;;24.80;73.50;;;;;;5428898;26;20468;-42
2024/04/12 12:42:57;;;;;;;2.17;1.97;;;24.80;73.40;;;;;;5434246;26;20533;-43
2024/04/12 12:45:29;;;;;;;2.67;1.77;;;24.80;73.30;;;;;;5433742;26;20793;-47
2024/04/12 12:48:00;;;;;;;7.60;2.00;;;24.80;73.30;;;;;;5421297;26;21411;-41
2024/04/12 12:50:35;;;;;;;2.10;1.90;;;24.90;73.20;;;;;;5420390;26;21256;-50
2024/04/12 12:53:01;;;;;;;6.20;2.00;;;24.80;73.10;;;;;;5430554;26;20579;-47
2024/04/12 12:55:33;;;;;;;2.53;1.67;;;24.90;73.10;;;;;;5438356;26;20533;-43
2024/04/12 12:58:11;;;;;;;2.07;1.90;;;24.90;73.10;;;;;;5439615;26;20536;-48
2024/04/12 13:00:49;;;;;;;2.90;1.90;;;24.90;73.10;;;;;;5437920;26;20519;-46
2024/04/12 13:03:25;;;;;;;2.73;1.97;;;24.90;73.00;;;;;;5437377;26;20990;-45
2024/04/12 13:05:55;;;;;;;2.60;1.43;;;24.90;72.90;;;;;;5429826;26;20466;-44
2024/04/12 13:08:25;;;;;;;1.87;1.77;;;24.90;72.90;;;;;;5427359;26;20510;-47
2024/04/12 13:10:56;;;;;;;2.83;2.20;;;24.90;72.80;;;;;;5433867;26;21899;-47
2024/04/12 13:13:24;;;;;;;2.27;1.87;;;24.90;72.60;;;;;;5425291;26;20471;-49
2024/04/12 13:16:00;;;;;;;2.20;2.00;;;24.90;72.60;;;;;;5431510;26;20475;-46
2024/04/12 13:18:43;;;;;;;2.40;1.70;;;24.90;73.30;;;;;;5437022;26;20587;-42
2024/04/12 13:21:14;;;;;;;3.13;1.73;;;24.90;72.40;;;;;;5418932;26;20458;-44
2024/04/12 13:23:46;;;;;;;2.30;2.10;;;24.90;72.40;;;;;;5427267;26;20516;-42
2024/04/12 13:26:22;;;;;;;2.30;2.10;;;24.90;72.30;;;;;;5421471;26;20465;-46
2024/04/12 13:28:52;;;;;;;2.23;1.50;;;25.00;72.40;;;;;;5430727;26;20526;-46
2024/04/12 13:31:24;;;;;;;2.53;1.80;;;25.00;72.30;;;;;;5428563;26;20838;-45
2024/04/12 13:33:53;;;;;;;2.03;1.90;;;25.00;72.20;;;;;;5430893;26;20666;-50
2024/04/12 13:36:24;;;;;;;2.03;1.80;;;25.00;72.10;;;;;;5426019;26;20554;-41
2024/04/12 13:38:53;;;;;;;3.17;1.90;;;25.00;72.00;;;;;;5422489;26;20523;-48
2024/04/12 13:41:23;;;;;;;2.23;2.03;;;25.00;71.90;;;;;;5434823;26;21756;-47
2024/04/12 13:43:52;;;;;;;1.90;1.70;;;25.00;71.90;;;;;;5426427;26;20531;-42
2024/04/12 13:51:57;;;;;;;2.63;1.70;;;25.00;71.70;;;;;;5455345;26;20529;-44
2024/04/12 13:54:29;;;;;;;2.37;1.80;;;25.00;71.70;;;;;;5434665;26;20613;-45
2024/04/12 13:57:02;;;;;;;2.47;1.73;;;25.10;71.80;;;;;;5439376;26;21700;-47
2024/04/12 13:59:42;;;;;;;3.10;1.80;;;25.00;71.60;;;;;;5446714;26;20558;-50
2024/04/12 14:02:17;;;;;;;2.00;1.80;;;25.10;71.70;;;;;;5422154;26;20458;-48
2024/04/12 14:04:48;;;;;;;1.60;1.20;;;25.00;71.50;;;;;;5445823;26;20477;-48
2024/04/12 14:07:20;;;;;;;2.80;1.90;;;25.00;71.50;;;;;;5432255;26;21013;-48
2024/04/12 14:09:51;;;;;;;1.90;1.80;;;25.00;71.40;;;;;;5438646;26;20534;-45
2024/04/12 14:12:22;;;;;;;2.10;1.90;;;25.00;71.40;;;;;;5438750;26;20545;-43
2024/04/12 14:14:53;;;;;;;3.70;2.50;;;25.00;71.40;;;;;;5429856;26;20455;-42
2024/04/12 14:17:28;;;;;;;2.17;1.90;;;25.00;71.40;;;;;;5429041;26;20528;-45
2024/04/12 14:20:10;;;;;;;1.97;1.80;;;25.00;71.40;;;;;;5443029;26;20474;-42
2024/04/12 14:22:39;;;;;;;2.67;1.67;;;25.00;71.30;;;;;;5415418;26;20470;-48
2024/04/12 14:25:08;;;;;;;3.40;1.70;;;25.00;71.30;;;;;;5429118;26;21143;-48
2024/04/12 14:27:40;;;;;;;1.83;1.63;;;25.10;71.40;;;;;;5430789;26;20483;-44
2024/04/12 14:30:15;;;;;;;2.00;1.90;;;25.00;71.30;;;;;;5427194;26;20541;-41
2024/04/12 14:32:48;;;;;;;2.87;1.70;;;25.10;71.30;;;;;;5446261;26;21218;-41